Brush Hill, Illinois
Current Conditions -  °F | °C
As of 1:52 AM on Wednesday 26 Nov 2014 (Local Time) from KMDH Reporting Station
Haze Haze  
Wind Chill: 20°   Ceiling: Unl
Heat Index: 20°   Visibility: 4mi
Dew Point: 18°   Wind: 0mph
Humidity: 92%   Direction: NA
Pressure: 30.15"   Gusts: NA
Location:  37.7248°N, 89.197°W
Report Text: KMDH 260752Z AUTO 00000KT 4SM BR CLR M07/M08 A3015 RMK AO2 SLP215 I1000 T10671078
Loading
Personal Weather Stations






























Interactive Weather Map New forecast layout! Learn more

10-Day Weather Forecast

Advertisements
Track Severe Weather on mobile